Time;durP1;ratioP1;P1;durP2;ratioP2;P2;SDS_P1;SDS_P2;PMS_P1;PMS_P2;Temp;Humidity;BMP_temperature;BMP_pressure;BME280_temperature;BME280_humidity;BME280_pressure;Samples;Min_cycle;Max_cycle;Signal;HPM_P1;HPM_P2
2023/08/29 00:01:12;;;;;;;;;;;21.80;72.40;;;;;;5029608;28;19924;-70
2023/08/29 00:03:39;;;;;;;;;;;22.60;68.00;;;;;;5026465;28;19917;-69
2023/08/29 00:06:05;;;;;;;;;;;22.70;72.40;;;;;;5030026;28;19921;-70
2023/08/29 00:08:33;;;;;;;;;;;22.80;67.60;;;;;;5024503;28;19917;-69
2023/08/29 00:11:00;;;;;;;;;;;23.10;66.80;;;;;;5027214;28;20297;-71
2023/08/29 00:13:27;;;;;;;;;;;23.40;64.20;;;;;;5025459;28;20500;-69
2023/08/29 00:15:53;;;;;;;;;;;22.70;67.10;;;;;;5031565;28;19913;-69
2023/08/29 00:18:20;;;;;;;;;;;22.70;69.30;;;;;;5030360;28;19928;-69
2023/08/29 00:20:47;;;;;;;;;;;23.40;66.00;;;;;;5029553;28;19913;-69
2023/08/29 00:23:13;;;;;;;;;;;23.30;66.80;;;;;;5027669;28;20428;-68
2023/08/29 00:25:40;;;;;;;;;;;24.10;67.20;;;;;;5025530;28;19951;-68
2023/08/29 00:28:07;;;;;;;;;;;24.20;63.60;;;;;;5028030;28;19967;-68
2023/08/29 00:30:36;;;;;;;;;;;24.30;60.80;;;;;;5027351;28;19917;-68
2023/08/29 00:33:03;;;;;;;;;;;24.00;63.50;;;;;;5028432;28;20277;-68
2023/08/29 00:35:30;;;;;;;;;;;24.10;64.80;;;;;;5027281;28;19923;-69
2023/08/29 00:37:58;;;;;;;;;;;24.40;64.30;;;;;;5026399;28;20341;-68
2023/08/29 00:40:31;;;;;;;;;;;24.30;61.00;;;;;;5024518;28;19917;-69
2023/08/29 00:42:58;;;;;;;;;;;23.80;61.80;;;;;;5028340;28;19988;-69
2023/08/29 00:45:25;;;;;;;;;;;24.20;63.00;;;;;;5024563;28;20677;-68
2023/08/29 00:47:52;;;;;;;;;;;24.40;61.20;;;;;;5028726;28;19959;-67
2023/08/29 00:50:19;;;;;;;;;;;24.30;60.80;;;;;;5032587;28;20390;-68
2023/08/29 00:52:46;;;;;;;;;;;25.50;57.60;;;;;;5031118;28;20293;-68
2023/08/29 00:55:13;;;;;;;;;;;25.10;57.90;;;;;;5030054;28;19917;-68
2023/08/29 00:57:39;;;;;;;;;;;25.30;56.60;;;;;;5029894;28;19913;-69
2023/08/29 01:00:06;;;;;;;;;;;25.10;56.20;;;;;;5028600;28;19967;-68
2023/08/29 01:02:33;;;;;;;;;;;24.80;58.60;;;;;;5027637;28;19913;-69
2023/08/29 01:05:00;;;;;;;;;;;25.00;58.80;;;;;;5029014;28;19921;-68
2023/08/29 01:07:26;;;;;;;;;;;25.10;56.20;;;;;;5027546;28;19917;-68
2023/08/29 01:09:53;;;;;;;;;;;25.50;56.80;;;;;;5031474;28;19921;-68
2023/08/29 01:12:20;;;;;;;;;;;25.70;54.50;;;;;;5030097;28;19936;-68
2023/08/29 01:15:00;;;;;;;;;;;25.20;57.70;;;;;;5030331;28;19923;-69
2023/08/29 01:17:33;;;;;;;;;;;24.90;56.20;;;;;;5032955;28;19924;-69
2023/08/29 01:20:00;;;;;;;;;;;25.10;54.70;;;;;;5029191;28;20012;-68
2023/08/29 01:22:45;;;;;;;;;;;25.30;55.20;;;;;;5031005;28;19921;-68
2023/08/29 01:25:16;;;;;;;;;;;25.60;53.30;;;;;;5028461;28;19925;-69
2023/08/29 01:27:42;;;;;;;;;;;25.60;53.00;;;;;;5032721;28;19917;-69
2023/08/29 01:30:09;;;;;;;;;;;25.90;54.10;;;;;;5030395;28;19924;-70
2023/08/29 01:32:37;;;;;;;;;;;25.60;53.00;;;;;;5031668;28;19967;-69
2023/08/29 01:35:05;;;;;;;;;;;25.70;51.80;;;;;;5029111;28;20355;-69
2023/08/29 01:37:31;;;;;;;;;;;25.80;52.20;;;;;;5029828;28;19921;-70
2023/08/29 01:39:58;;;;;;;;;;;26.00;51.30;;;;;;5031429;28;20012;-69
2023/08/29 01:42:25;;;;;;;;;;;25.80;52.90;;;;;;5030712;28;19975;-70
2023/08/29 01:44:51;;;;;;;;;;;26.00;54.70;;;;;;5029121;28;19929;-70
2023/08/29 01:47:18;;;;;;;;;;;26.50;50.60;;;;;;5031565;28;19917;-69
2023/08/29 01:49:45;;;;;;;;;;;25.80;50.90;;;;;;5032657;28;20052;-69
2023/08/29 01:52:11;;;;;;;;;;;25.80;50.00;;;;;;5031692;28;19913;-69
2023/08/29 01:54:38;;;;;;;;;;;25.50;52.20;;;;;;5029917;28;19921;-69
2023/08/29 01:57:06;;;;;;;;;;;25.60;49.80;;;;;;5028894;28;20042;-68
2023/08/29 01:59:33;;;;;;;;;;;25.60;51.90;;;;;;5029017;28;19956;-70
2023/08/29 02:02:01;;;;;;;;;;;25.50;52.40;;;;;;5028024;28;19921;-69
2023/08/29 02:04:28;;;;;;;;;;;25.40;51.10;;;;;;5027964;28;19921;-69
2023/08/29 02:06:55;;;;;;;;;;;25.50;49.60;;;;;;5030817;28;19956;-70
2023/08/29 02:09:22;;;;;;;;;;;25.30;50.50;;;;;;5031063;28;19921;-69
2023/08/29 02:11:48;;;;;;;;;;;25.30;50.90;;;;;;5033077;28;19923;-69
2023/08/29 02:14:15;;;;;;;;;;;25.50;50.40;;;;;;5028352;28;19917;-70
2023/08/29 02:16:42;;;;;;;;;;;25.70;50.60;;;;;;5030804;28;19946;-69
2023/08/29 02:19:08;;;;;;;;;;;25.90;51.10;;;;;;5027091;28;19914;-69
2023/08/29 02:21:35;;;;;;;;;;;26.40;51.00;;;;;;5030339;28;19939;-69
2023/08/29 02:24:04;;;;;;;;;;;26.30;47.70;;;;;;5031577;28;19913;-69
2023/08/29 02:26:31;;;;;;;;;;;26.20;47.70;;;;;;5029441;28;19959;-69
2023/08/29 02:28:58;;;;;;;;;;;26.20;48.60;;;;;;5030744;28;20247;-69
2023/08/29 02:31:24;;;;;;;;;;;26.30;50.10;;;;;;5032656;28;19916;-69
2023/08/29 02:33:53;;;;;;;;;;;26.50;48.50;;;;;;5031835;28;19952;-69
2023/08/29 02:36:20;;;;;;;;;;;26.80;48.00;;;;;;5032266;28;20286;-69
2023/08/29 02:38:46;;;;;;;;;;;26.90;48.00;;;;;;5031895;28;19920;-69
2023/08/29 02:41:13;;;;;;;;;;;27.00;49.40;;;;;;5030501;28;19913;-69
2023/08/29 02:43:40;;;;;;;;;;;26.90;46.50;;;;;;5031543;28;19960;-68
2023/08/29 02:46:07;;;;;;;;;;;27.20;46.10;;;;;;5027642;28;19925;-69
2023/08/29 02:48:34;;;;;;;;;;;27.20;45.00;;;;;;5031464;28;20371;-69
2023/08/29 02:51:00;;;;;;;;;;;27.10;44.10;;;;;;5033728;28;19920;-69
2023/08/29 02:53:27;;;;;;;;;;;27.00;45.70;;;;;;5031993;28;19913;-69
2023/08/29 02:55:54;;;;;;;;;;;27.20;45.80;;;;;;5030911;28;19923;-68
2023/08/29 02:58:20;;;;;;;;;;;27.30;44.90;;;;;;5030925;28;20400;-68
2023/08/29 03:00:47;;;;;;;;;;;27.10;44.40;;;;;;5030626;28;20287;-68
2023/08/29 03:03:14;;;;;;;;;;;27.00;46.30;;;;;;5030726;28;20022;-69
2023/08/29 03:05:42;;;;;;;;;;;27.40;43.90;;;;;;5029860;28;19917;-69
2023/08/29 03:08:09;;;;;;;;;;;27.20;44.40;;;;;;5031380;28;19909;-68
2023/08/29 03:10:39;;;;;;;;;;;27.50;46.70;;;;;;5027083;28;19913;-69
2023/08/29 03:13:05;;;;;;;;;;;27.80;45.90;;;;;;5028334;28;19944;-69
2023/08/29 03:15:33;;;;;;;;;;;27.80;43.00;;;;;;5029913;28;19909;-68
2023/08/29 03:18:00;;;;;;;;;;;27.90;44.90;;;;;;5029236;28;20003;-69
2023/08/29 03:20:26;;;;;;;;;;;27.40;44.10;;;;;;5031001;28;20394;-69
2023/08/29 03:22:53;;;;;;;;;;;27.60;45.30;;;;;;5032509;28;19921;-68
2023/08/29 03:25:20;;;;;;;;;;;27.40;43.20;;;;;;5029688;28;20003;-69
2023/08/29 03:27:47;;;;;;;;;;;27.30;44.60;;;;;;5029469;28;19917;-68
2023/08/29 03:30:14;;;;;;;;;;;27.30;42.40;;;;;;5028017;28;20402;-68
2023/08/29 03:32:41;;;;;;;;;;;27.60;43.40;;;;;;5027583;28;19917;-67
2023/08/29 03:35:08;;;;;;;;;;;27.70;43.80;;;;;;5029629;28;20390;-69
2023/08/29 03:37:35;;;;;;;;;;;27.80;43.40;;;;;;5030829;28;19997;-69
2023/08/29 03:40:02;;;;;;;;;;;27.60;42.80;;;;;;5030818;28;19924;-69
2023/08/29 03:42:29;;;;;;;;;;;27.60;43.90;;;;;;5029698;28;19972;-69
2023/08/29 03:44:56;;;;;;;;;;;27.10;42.90;;;;;;5029538;28;19925;-70
2023/08/29 03:47:23;;;;;;;;;;;26.70;43.50;;;;;;5030238;28;19917;-68
2023/08/29 03:49:50;;;;;;;;;;;26.60;43.50;;;;;;5027401;28;20362;-69
2023/08/29 03:52:27;;;;;;;;;;;26.80;43.30;;;;;;5027507;28;20001;-69
2023/08/29 03:54:54;;;;;;;;;;;26.90;42.10;;;;;;5028456;28;19928;-66
2023/08/29 03:57:21;;;;;;;;;;;26.90;41.30;;;;;;5024583;28;19924;-66
2023/08/29 03:59:47;;;;;;;;;;;27.10;43.90;;;;;;5026455;28;20355;-68
2023/08/29 04:02:14;;;;;;;;;;;27.20;42.00;;;;;;5026465;28;19996;-68
2023/08/29 04:04:44;;;;;;;;;;;27.10;42.20;;;;;;5026475;28;19924;-68
2023/08/29 04:07:11;;;;;;;;;;;27.10;42.10;;;;;;5027227;28;20371;-68
2023/08/29 04:09:37;;;;;;;;;;;27.20;41.50;;;;;;5029484;28;19909;-68
2023/08/29 04:12:07;;;;;;;;;;;27.30;43.40;;;;;;5026078;28;20982;-68
2023/08/29 04:14:37;;;;;;;;;;;27.40;41.60;;;;;;5024832;28;20290;-68
2023/08/29 04:17:04;;;;;;;;;;;27.10;42.80;;;;;;5029895;28;20385;-68
2023/08/29 04:19:31;;;;;;;;;;;26.90;43.30;;;;;;5028602;28;19956;-68
2023/08/29 04:21:57;;;;;;;;;;;26.90;42.60;;;;;;5028336;28;20047;-68
2023/08/29 04:24:24;;;;;;;;;;;26.90;43.70;;;;;;5028461;28;19921;-68
2023/08/29 04:26:51;;;;;;;;;;;27.00;41.70;;;;;;5024237;28;19924;-68
2023/08/29 04:29:18;;;;;;;;;;;27.20;42.20;;;;;;5028028;28;19924;-68
2023/08/29 04:31:45;;;;;;;;;;;27.40;41.80;;;;;;5026144;28;19968;-68
2023/08/29 04:34:11;;;;;;;;;;;27.20;42.60;;;;;;5029541;28;19924;-69
2023/08/29 04:36:38;;;;;;;;;;;27.00;42.20;;;;;;5027430;28;19917;-68
2023/08/29 04:39:06;;;;;;;;;;;27.00;41.50;;;;;;5027114;28;19921;-68
2023/08/29 04:41:32;;;;;;;;;;;26.80;41.80;;;;;;5028526;28;20010;-68
2023/08/29 04:43:59;;;;;;;;;;;27.00;43.00;;;;;;5027294;28;20277;-68
2023/08/29 04:46:25;;;;;;;;;;;27.00;41.60;;;;;;5028718;28;20515;-68
2023/08/29 04:48:53;;;;;;;;;;;27.00;41.80;;;;;;5029445;28;20377;-67
2023/08/29 04:51:20;;;;;;;;;;;26.70;41.20;;;;;;5029454;28;19909;-71
2023/08/29 04:53:47;;;;;;;;;;;26.40;42.90;;;;;;5028559;28;20286;-69
2023/08/29 04:56:13;;;;;;;;;;;25.60;43.60;;;;;;5028120;28;20397;-69
2023/08/29 04:58:40;;;;;;;;;;;25.50;43.50;;;;;;5023835;28;19913;-67
2023/08/29 05:01:07;;;;;;;;;;;25.20;44.70;;;;;;5028266;28;20318;-69
2023/08/29 05:03:34;;;;;;;;;;;25.20;44.00;;;;;;5030073;28;19909;-69
2023/08/29 05:06:00;;;;;;;;;;;25.10;43.80;;;;;;5030495;28;20326;-68
2023/08/29 05:08:27;;;;;;;;;;;24.80;43.50;;;;;;5026868;28;20366;-68
2023/08/29 05:10:54;;;;;;;;;;;24.80;44.80;;;;;;5030708;28;20090;-68
2023/08/29 05:13:20;;;;;;;;;;;24.70;44.30;;;;;;5026505;28;20263;-66
2023/08/29 05:15:47;;;;;;;;;;;24.70;44.30;;;;;;5030373;28;19943;-68
2023/08/29 05:18:14;;;;;;;;;;;24.50;44.50;;;;;;5027726;28;19913;-69
2023/08/29 05:20:41;;;;;;;;;;;24.40;44.20;;;;;;5029241;28;20003;-70
2023/08/29 05:23:08;;;;;;;;;;;24.40;45.70;;;;;;5028946;28;20358;-67
2023/08/29 05:25:34;;;;;;;;;;;24.40;45.50;;;;;;5040675;28;19983;-68
2023/08/29 05:28:01;;;;;;;;;;;24.90;43.30;;;;;;5027600;28;20381;-68
2023/08/29 05:30:30;;;;;;;;;;;25.40;43.20;;;;;;5026390;28;20426;-68
2023/08/29 05:32:56;;;;;;;;;;;25.60;42.60;;;;;;5025278;28;19921;-69
2023/08/29 05:35:24;;;;;;;;;;;25.60;42.30;;;;;;5028823;28;19913;-68
2023/08/29 05:37:51;;;;;;;;;;;25.50;42.00;;;;;;5027540;28;19917;-68
2023/08/29 05:40:18;;;;;;;;;;;25.50;41.80;;;;;;5031005;28;20008;-68
2023/08/29 05:42:44;;;;;;;;;;;25.60;42.20;;;;;;5032260;28;19932;-68
2023/08/29 05:45:11;;;;;;;;;;;25.70;41.30;;;;;;5031224;28;20012;-68
2023/08/29 05:47:37;;;;;;;;;;;25.70;42.70;;;;;;5030022;28;19968;-68
2023/08/29 05:50:04;;;;;;;;;;;25.80;40.80;;;;;;5030491;28;19921;-68
2023/08/29 05:52:31;;;;;;;;;;;25.90;41.10;;;;;;5030073;28;19913;-69
2023/08/29 05:54:58;;;;;;;;;;;26.00;42.10;;;;;;5033351;28;19913;-67
2023/08/29 05:57:25;;;;;;;;;;;25.70;42.50;;;;;;5031667;28;20363;-68
2023/08/29 05:59:53;;;;;;;;;;;25.50;42.00;;;;;;5031348;28;20275;-68
2023/08/29 06:02:20;;;;;;;;;;;25.60;42.30;;;;;;5031336;28;19952;-67
2023/08/29 06:04:48;;;;;;;;;;;25.50;41.40;;;;;;5029431;28;19921;-68
2023/08/29 06:07:14;;;;;;;;;;;25.50;42.70;;;;;;5031750;28;19913;-68
2023/08/29 06:09:41;;;;;;;;;;;25.50;41.80;;;;;;5028763;28;19963;-68
2023/08/29 06:12:08;;;;;;;;;;;25.40;41.40;;;;;;5029883;28;19960;-68
2023/08/29 06:14:34;;;;;;;;;;;25.50;40.70;;;;;;5029430;28;20323;-68
2023/08/29 06:17:01;;;;;;;;;;;25.40;42.00;;;;;;5029679;28;19913;-68
2023/08/29 06:19:28;;;;;;;;;;;25.40;41.70;;;;;;5031047;28;20420;-68
2023/08/29 06:21:55;;;;;;;;;;;25.20;41.50;;;;;;5029478;28;19917;-68
2023/08/29 06:24:21;;;;;;;;;;;25.20;43.30;;;;;;5029005;28;19967;-69
2023/08/29 06:26:49;;;;;;;;;;;25.10;40.50;;;;;;5028865;28;19944;-67
2023/08/29 06:29:16;;;;;;;;;;;24.80;39.20;;;;;;5029492;28;20333;-68
2023/08/29 06:31:43;;;;;;;;;;;24.70;38.70;;;;;;5028960;28;20281;-69
2023/08/29 06:34:10;;;;;;;;;;;24.60;39.20;;;;;;5029652;28;19999;-68
2023/08/29 06:36:37;;;;;;;;;;;24.30;39.80;;;;;;5032525;28;19912;-67
2023/08/29 06:39:04;;;;;;;;;;;24.00;39.20;;;;;;5030660;28;19917;-69
2023/08/29 06:41:31;;;;;;;;;;;23.70;40.30;;;;;;5034095;28;20298;-67
2023/08/29 06:43:58;;;;;;;;;;;23.50;41.50;;;;;;5031675;28;19936;-68
2023/08/29 06:46:24;;;;;;;;;;;23.40;42.20;;;;;;5032689;28;19927;-68
2023/08/29 06:48:51;;;;;;;;;;;23.40;41.70;;;;;;5029226;28;20012;-68
2023/08/29 06:51:18;;;;;;;;;;;23.30;42.00;;;;;;5031140;28;19917;-68
2023/08/29 06:53:44;;;;;;;;;;;23.30;42.70;;;;;;5028172;28;19921;-68
2023/08/29 06:56:11;;;;;;;;;;;23.40;41.90;;;;;;5031644;28;19909;-68
2023/08/29 06:58:38;;;;;;;;;;;23.50;41.70;;;;;;5030905;28;19909;-68
2023/08/29 07:01:05;;;;;;;;;;;23.60;42.20;;;;;;5032203;28;19943;-68
2023/08/29 07:03:31;;;;;;;;;;;23.50;41.90;;;;;;5030366;28;19921;-68
2023/08/29 07:05:59;;;;;;;;;;;23.40;42.40;;;;;;5029160;28;19928;-68
2023/08/29 07:08:25;;;;;;;;;;;23.30;43.10;;;;;;5028191;28;20239;-67
2023/08/29 07:10:52;;;;;;;;;;;23.20;43.10;;;;;;5028853;28;19913;-68
2023/08/29 07:13:19;;;;;;;;;;;23.10;44.10;;;;;;5025554;28;20337;-69
2023/08/29 07:15:46;;;;;;;;;;;22.90;44.20;;;;;;5029097;28;19917;-70
2023/08/29 07:18:13;;;;;;;;;;;22.80;44.60;;;;;;5028142;28;19913;-69
2023/08/29 07:20:40;;;;;;;;;;;22.60;45.00;;;;;;5030746;28;19913;-69
2023/08/29 07:23:07;;;;;;;;;;;22.50;45.00;;;;;;5029798;28;19917;-70
2023/08/29 07:25:38;;;;;;;;;;;22.30;45.10;;;;;;5029044;28;19967;-71
2023/08/29 07:28:14;;;;;;;;;;;22.20;45.80;;;;;;5028701;28;20389;-68
2023/08/29 07:30:45;;;;;;;;;;;22.10;45.90;;;;;;5029018;28;20329;-68
2023/08/29 07:33:12;;;;;;;;;;;22.30;49.30;;;;;;5031588;28;20004;-69
2023/08/29 07:35:39;;;;;;;;;;;22.20;50.70;;;;;;5041936;28;19913;-70
2023/08/29 07:38:06;;;;;;;;;;;22.00;52.10;;;;;;5031911;28;19936;-71
2023/08/29 07:40:33;;;;;;;;;;;22.00;52.70;;;;;;5033703;28;19928;-72
2023/08/29 07:43:04;;;;;;;;;;;21.90;53.40;;;;;;5034845;28;19914;-72
2023/08/29 07:45:31;;;;;;;;;;;21.80;54.30;;;;;;5031701;28;19925;-71
2023/08/29 07:47:57;;;;;;;;;;;21.60;55.30;;;;;;5032852;28;20001;-71
2023/08/29 07:50:24;;;;;;;;;;;21.50;56.20;;;;;;5032078;28;20413;-72
2023/08/29 07:52:51;;;;;;;;;;;21.40;57.50;;;;;;5033909;28;19959;-72
2023/08/29 07:55:17;;;;;;;;;;;21.30;57.70;;;;;;5031276;28;19913;-71
2023/08/29 07:57:44;;;;;;;;;;;21.20;58.30;;;;;;5032654;28;19967;-72
2023/08/29 08:00:13;;;;;;;;;;;21.00;59.90;;;;;;5033994;28;20012;-71
2023/08/29 08:02:39;;;;;;;;;;;20.90;60.80;;;;;;5033653;28;19916;-71
2023/08/29 08:05:10;;;;;;;;;;;20.70;61.80;;;;;;5044139;28;19928;-70
2023/08/29 08:07:41;;;;;;;;;;;20.60;62.10;;;;;;5027403;28;19917;-71
2023/08/29 08:10:08;;;;;;;;;;;20.50;62.30;;;;;;5028497;28;19999;-71
2023/08/29 08:12:37;;;;;;;;;;;20.70;62.60;;;;;;5027769;28;20198;-71
2023/08/29 08:15:05;;;;;;;;;;;20.60;63.00;;;;;;5032690;28;20366;-72
2023/08/29 08:17:32;;;;;;;;;;;20.60;63.90;;;;;;5031977;28;19913;-71
2023/08/29 08:19:59;;;;;;;;;;;20.60;65.30;;;;;;5032592;28;20015;-72
2023/08/29 08:22:26;;;;;;;;;;;20.60;66.50;;;;;;5033167;28;19921;-71
2023/08/29 08:24:52;;;;;;;;;;;20.60;67.40;;;;;;5030091;28;19925;-72
2023/08/29 08:27:19;;;;;;;;;;;20.70;68.10;;;;;;5029068;28;19996;-72
2023/08/29 08:29:46;;;;;;;;;;;20.70;69.20;;;;;;5031123;28;20380;-72
2023/08/29 08:32:12;;;;;;;;;;;20.70;69.70;;;;;;5031536;28;19960;-71
2023/08/29 08:34:39;;;;;;;;;;;20.60;70.60;;;;;;5032317;28;19924;-72
2023/08/29 08:37:06;;;;;;;;;;;20.40;72.20;;;;;;5031634;28;19924;-73
2023/08/29 08:39:32;;;;;;;;;;;20.30;72.80;;;;;;5025680;28;19917;-71
2023/08/29 08:42:02;;;;;;;;;;;20.40;73.20;;;;;;5031951;28;19921;-70
2023/08/29 08:44:30;;;;;;;;;;;20.50;73.10;;;;;;5031452;28;20012;-72
2023/08/29 08:46:57;;;;;;;;;;;20.40;73.20;;;;;;5019325;28;19929;-72
2023/08/29 08:49:24;;;;;;;;;;;20.50;73.40;;;;;;5032576;28;19925;-72
2023/08/29 08:51:51;;;;;;;;;;;20.40;73.90;;;;;;5028749;28;19976;-72
2023/08/29 08:54:18;;;;;;;;;;;20.20;74.70;;;;;;5028701;28;19917;-72
2023/08/29 08:56:44;;;;;;;;;;;20.10;75.30;;;;;;5030330;28;19912;-72
2023/08/29 08:59:11;;;;;;;;;;;20.20;75.60;;;;;;5029605;28;19921;-72
2023/08/29 09:01:38;;;;;;;;;;;20.20;75.70;;;;;;5026797;28;19917;-72
2023/08/29 09:04:05;;;;;;;;;;;20.20;76.50;;;;;;5029227;28;19959;-72
2023/08/29 09:06:32;;;;;;;;;;;20.00;77.60;;;;;;5029945;28;19925;-72
2023/08/29 09:09:19;;;;;;;;;;;20.00;78.00;;;;;;5032992;28;19917;-72
2023/08/29 09:11:52;;;;;;;;;;;20.00;78.10;;;;;;5034057;28;20011;-70
2023/08/29 09:14:19;;;;;;;;;;;20.00;78.60;;;;;;5032703;28;20386;-72
2023/08/29 09:16:46;;;;;;;;;;;19.80;79.30;;;;;;5044230;28;19924;-71
2023/08/29 09:19:13;;;;;;;;;;;19.80;79.50;;;;;;5030854;28;20446;-71
2023/08/29 09:21:43;;;;;;;;;;;19.70;80.10;;;;;;5032876;28;19913;-70
2023/08/29 09:24:13;;;;;;;;;;;19.70;80.40;;;;;;5035560;28;19913;-70
2023/08/29 09:26:41;;;;;;;;;;;19.70;80.80;;;;;;5029953;28;20025;-70
2023/08/29 09:29:17;;;;;;;;;;;19.70;81.00;;;;;;5030061;28;20350;-71
2023/08/29 09:31:46;;;;;;;;;;;19.50;81.40;;;;;;5031868;28;20322;-70
2023/08/29 09:34:25;;;;;;;;;;;19.50;82.10;;;;;;5032369;28;20243;-71
2023/08/29 09:36:53;;;;;;;;;;;19.50;82.00;;;;;;5030688;28;19927;-71
2023/08/29 09:39:21;;;;;;;;;;;19.40;82.70;;;;;;5034556;28;19913;-71
2023/08/29 09:42:01;;;;;;;;;;;19.20;83.30;;;;;;5036428;28;20312;-72
2023/08/29 09:44:28;;;;;;;;;;;19.10;83.80;;;;;;5032607;28;19971;-71
2023/08/29 09:46:55;;;;;;;;;;;19.10;84.80;;;;;;5032356;28;20325;-70
2023/08/29 09:49:21;;;;;;;;;;;19.10;84.30;;;;;;5033324;28;19921;-71
2023/08/29 09:51:49;;;;;;;;;;;18.90;84.90;;;;;;5031174;28;19924;-70
2023/08/29 09:54:19;;;;;;;;;;;18.80;85.40;;;;;;5031444;28;20289;-70
2023/08/29 09:56:45;;;;;;;;;;;18.70;86.30;;;;;;5028949;28;20039;-72
2023/08/29 09:59:16;;;;;;;;;;;18.80;87.20;;;;;;5031187;28;20026;-72
2023/08/29 10:01:45;;;;;;;;;;;18.60;87.10;;;;;;5047710;28;19998;-72
2023/08/29 10:04:14;;;;;;;;;;;18.60;87.80;;;;;;5025689;28;19964;-72
2023/08/29 10:06:42;;;;;;;;;;;18.40;88.90;;;;;;5035623;28;19940;-72
2023/08/29 10:09:10;;;;;;;;;;;18.40;89.30;;;;;;5034103;28;19928;-70
2023/08/29 10:11:37;;;;;;;;;;;18.40;89.50;;;;;;5030497;28;19964;-69
2023/08/29 10:14:04;;;;;;;;;;;18.30;89.70;;;;;;5033265;28;19917;-71
2023/08/29 10:16:32;;;;;;;;;;;18.10;90.10;;;;;;5033655;28;20583;-70
2023/08/29 10:18:58;;;;;;;;;;;18.00;90.60;;;;;;5031835;28;19968;-72
2023/08/29 10:21:26;;;;;;;;;;;17.90;90.90;;;;;;5030704;28;20378;-72
2023/08/29 10:23:53;;;;;;;;;;;17.80;91.20;;;;;;5031351;28;19944;-71
2023/08/29 10:26:20;;;;;;;;;;;17.70;91.40;;;;;;5030979;28;19975;-70
2023/08/29 10:28:48;;;;;;;;;;;17.60;91.70;;;;;;5031264;28;19920;-70
2023/08/29 10:31:15;;;;;;;;;;;17.50;91.80;;;;;;5033345;28;19928;-71
2023/08/29 10:33:42;;;;;;;;;;;17.50;92.20;;;;;;5030751;28;19963;-71
2023/08/29 10:36:09;;;;;;;;;;;17.40;92.20;;;;;;5029968;28;19924;-70
2023/08/29 10:38:40;;;;;;;;;;;17.40;92.20;;;;;;5029880;28;19924;-72
2023/08/29 10:41:06;;;;;;;;;;;17.30;92.40;;;;;;5033093;28;19967;-71
2023/08/29 10:43:34;;;;;;;;;;;17.20;92.60;;;;;;5039421;28;19917;-73
2023/08/29 10:46:21;;;;;;;;;;;17.20;92.70;;;;;;5041824;28;19927;-72
2023/08/29 10:48:48;;;;;;;;;;;17.10;92.80;;;;;;5033853;28;19917;-72
2023/08/29 10:51:17;;;;;;;;;;;17.10;93.10;;;;;;5034047;28;20313;-72
2023/08/29 10:53:54;;;;;;;;;;;17.00;93.30;;;;;;5030476;28;19913;-70
2023/08/29 10:56:39;;;;;;;;;;;16.90;93.30;;;;;;5028689;28;19971;-71
2023/08/29 10:59:06;;;;;;;;;;;16.80;93.60;;;;;;5029717;28;19924;-71
2023/08/29 11:01:36;;;;;;;;;;;17.00;93.30;;;;;;5045533;28;19920;-71
2023/08/29 11:04:12;;;;;;;;;;;16.90;93.50;;;;;;5024129;28;19979;-71
2023/08/29 11:06:55;;;;;;;;;;;17.00;93.30;;;;;;5028546;28;19925;-72
2023/08/29 11:09:23;;;;;;;;;;;16.90;93.30;;;;;;5031174;28;19917;-73
2023/08/29 11:12:07;;;;;;;;;;;16.70;93.60;;;;;;5031323;28;19943;-72
2023/08/29 11:14:51;;;;;;;;;;;16.70;94.10;;;;;;5033724;28;20329;-71
2023/08/29 11:17:24;;;;;;;;;;;16.80;93.50;;;;;;5028914;28;20602;-72
2023/08/29 11:19:55;;;;;;;;;;;16.70;93.70;;;;;;5028263;28;19918;-73
2023/08/29 11:22:31;;;;;;;;;;;16.60;93.90;;;;;;5027682;28;19971;-73
2023/08/29 11:24:58;;;;;;;;;;;16.50;94.00;;;;;;5028714;28;19998;-72
2023/08/29 11:27:25;;;;;;;;;;;16.40;94.30;;;;;;5030487;28;20134;-72
2023/08/29 11:29:53;;;;;;;;;;;16.30;94.50;;;;;;5028342;28;20406;-72
2023/08/29 11:32:20;;;;;;;;;;;16.10;94.70;;;;;;5024649;28;19968;-72
2023/08/29 11:34:53;;;;;;;;;;;16.20;95.00;;;;;;5029882;28;19913;-72
2023/08/29 11:37:25;;;;;;;;;;;16.20;94.70;;;;;;5029031;28;20370;-72
2023/08/29 11:39:55;;;;;;;;;;;16.10;94.70;;;;;;5029959;28;19924;-73
2023/08/29 11:42:22;;;;;;;;;;;16.10;94.90;;;;;;5030149;28;20003;-72
2023/08/29 11:44:49;;;;;;;;;;;16.20;94.80;;;;;;5029092;28;19972;-72
2023/08/29 11:47:16;;;;;;;;;;;16.10;94.80;;;;;;5031597;28;19924;-71
2023/08/29 11:49:43;;;;;;;;;;;16.00;94.80;;;;;;5025955;28;19920;-73
2023/08/29 11:52:10;;;;;;;;;;;15.80;95.10;;;;;;5030587;28;19913;-71
2023/08/29 11:54:41;;;;;;;;;;;15.70;95.20;;;;;;5029217;28;20095;-70
2023/08/29 11:57:10;;;;;;;;;;;15.60;95.70;;;;;;5030008;28;19957;-71
2023/08/29 11:59:39;;;;;;;;;;;15.60;95.50;;;;;;5028933;28;20088;-71
2023/08/29 12:02:08;;;;;;;;;;;15.50;95.60;;;;;;5028509;28;19925;-71
2023/08/29 12:04:39;;;;;;;;;;;15.40;95.60;;;;;;5030280;28;20030;-71
2023/08/29 12:07:07;;;;;;;;;;;15.30;95.70;;;;;;5029772;28;19927;-71
2023/08/29 12:09:34;;;;;;;;;;;15.20;96.00;;;;;;5028506;28;20437;-72
2023/08/29 12:12:00;;;;;;;;;;;15.20;96.00;;;;;;5031906;28;19909;-71
2023/08/29 12:14:27;;;;;;;;;;;15.10;95.90;;;;;;5029904;28;19913;-72
2023/08/29 12:16:54;;;;;;;;;;;15.10;96.00;;;;;;5028360;28;19921;-71
2023/08/29 12:19:21;;;;;;;;;;;15.00;96.30;;;;;;5030677;28;19920;-71
2023/08/29 12:21:54;;;;;;;;;;;15.00;96.30;;;;;;5031192;28;20043;-71
2023/08/29 12:24:21;;;;;;;;;;;14.90;96.30;;;;;;5031853;28;19917;-71
2023/08/29 12:26:48;;;;;;;;;;;14.90;96.50;;;;;;5026147;28;20545;-72
2023/08/29 12:29:16;;;;;;;;;;;14.80;96.50;;;;;;5030592;28;19913;-71
2023/08/29 12:31:43;;;;;;;;;;;14.80;96.60;;;;;;5044820;28;19949;-72
2023/08/29 12:34:10;;;;;;;;;;;14.70;96.60;;;;;;5039100;28;20040;-71
2023/08/29 12:36:36;;;;;;;;;;;14.70;96.80;;;;;;5029524;28;19909;-69
2023/08/29 12:39:03;;;;;;;;;;;14.70;96.70;;;;;;5026141;28;19928;-70
2023/08/29 12:41:30;;;;;;;;;;;14.60;96.60;;;;;;5026209;28;20433;-71
2023/08/29 12:43:59;;;;;;;;;;;14.60;96.60;;;;;;5029753;28;19980;-71
2023/08/29 12:46:25;;;;;;;;;;;14.50;96.70;;;;;;5033042;28;19929;-71
2023/08/29 12:48:52;;;;;;;;;;;14.50;96.60;;;;;;5033780;28;19971;-71
2023/08/29 12:51:19;;;;;;;;;;;14.50;96.80;;;;;;5033121;28;19988;-71
2023/08/29 12:53:49;;;;;;;;;;;14.50;96.80;;;;;;5033345;28;20140;-72
2023/08/29 12:56:16;;;;;;;;;;;14.40;96.90;;;;;;5039050;28;19993;-72
2023/08/29 12:58:44;;;;;;;;;;;14.40;97.30;;;;;;5034831;28;20317;-72
2023/08/29 13:01:11;;;;;;;;;;;14.40;97.50;;;;;;5035708;28;19928;-71
2023/08/29 13:03:38;;;;;;;;;;;14.40;97.50;;;;;;5034099;28;19947;-71
2023/08/29 13:06:04;;;;;;;;;;;14.40;97.40;;;;;;5035386;28;19976;-71
2023/08/29 13:08:31;;;;;;;;;;;14.30;97.30;;;;;;5033093;28;19967;-72
2023/08/29 13:10:58;;;;;;;;;;;14.20;97.30;;;;;;5033302;28;19939;-71
2023/08/29 13:13:25;;;;;;;;;;;14.20;97.30;;;;;;5038350;28;19920;-71
2023/08/29 13:15:59;;;;;;;;;;;14.10;97.50;;;;;;5031690;28;19917;-72
2023/08/29 13:18:26;;;;;;;;;;;14.10;97.40;;;;;;5033967;28;19913;-71
2023/08/29 13:20:53;;;;;;;;;;;14.10;97.40;;;;;;5032925;28;20003;-71
2023/08/29 13:23:19;;;;;;;;;;;14.20;97.60;;;;;;5035722;28;20274;-71
2023/08/29 13:25:46;;;;;;;;;;;14.20;97.90;;;;;;5033744;28;19921;-71
2023/08/29 13:28:14;;;;;;;;;;;14.20;98.20;;;;;;5034591;28;20334;-71
2023/08/29 13:30:40;;;;;;;;;;;14.20;98.30;;;;;;5047603;28;19913;-69
2023/08/29 13:33:07;;;;;;;;;;;14.20;98.30;;;;;;5034984;28;19920;-71
2023/08/29 13:35:34;;;;;;;;;;;14.20;98.40;;;;;;5033451;28;19921;-70
2023/08/29 13:38:02;;;;;;;;;;;14.20;98.20;;;;;;5033253;28;19937;-69
2023/08/29 13:40:28;;;;;;;;;;;14.20;98.30;;;;;;5039213;28;19924;-71
2023/08/29 13:42:56;;;;;;;;;;;14.10;98.30;;;;;;5048695;28;19986;-69
2023/08/29 13:45:23;;;;;;;;;;;14.10;98.40;;;;;;5031576;28;19929;-71
2023/08/29 13:47:51;;;;;;;;;;;14.00;98.30;;;;;;5035281;28;19978;-72
2023/08/29 13:50:18;;;;;;;;;;;14.00;98.40;;;;;;5033376;28;20000;-71
2023/08/29 13:52:45;;;;;;;;;;;14.00;98.50;;;;;;5038621;28;19913;-71
2023/08/29 13:55:11;;;;;;;;;;;14.00;98.40;;;;;;5030906;28;19958;-71
2023/08/29 13:57:38;;;;;;;;;;;13.90;98.50;;;;;;5034093;28;19917;-71
2023/08/29 14:00:05;;;;;;;;;;;13.90;98.40;;;;;;5030826;28;19917;-71
2023/08/29 14:02:32;;;;;;;;;;;13.90;98.40;;;;;;5028825;28;19913;-71
2023/08/29 14:04:58;;;;;;;;;;;13.90;98.20;;;;;;5031101;28;19921;-71
2023/08/29 14:07:25;;;;;;;;;;;13.80;98.20;;;;;;5029509;28;20286;-71
2023/08/29 14:09:52;;;;;;;;;;;13.80;98.30;;;;;;5031496;28;19913;-70
2023/08/29 14:12:18;;;;;;;;;;;13.80;98.20;;;;;;5035454;28;19910;-71
2023/08/29 14:14:45;;;;;;;;;;;13.70;98.20;;;;;;5035571;28;19917;-71
2023/08/29 14:17:12;;;;;;;;;;;13.70;98.20;;;;;;5032431;28;20471;-71
2023/08/29 14:19:38;;;;;;;;;;;13.60;98.10;;;;;;5030380;28;20397;-71